sensor_id;sensor_type;location;lat;lon;timestamp;P1;durP1;ratioP1;P2;durP2;ratioP2
54665;SDS011;40566;50.006;36.180;2024-01-15T00:01:56;10.93;;;4.47;;
54665;SDS011;40566;50.006;36.180;2024-01-15T00:07:14;9.25;;;3.85;;
54665;SDS011;40566;50.006;36.180;2024-01-15T00:12:33;12.85;;;5.97;;
54665;SDS011;40566;50.006;36.180;2024-01-15T00:17:34;14.25;;;6.07;;
54665;SDS011;40566;50.006;36.180;2024-01-15T00:22:53;12.70;;;4.90;;
54665;SDS011;40566;50.006;36.180;2024-01-15T00:28:12;19.42;;;5.03;;
54665;SDS011;40566;50.006;36.180;2024-01-15T00:33:13;11.02;;;4.63;;
54665;SDS011;40566;50.006;36.180;2024-01-15T00:38:33;14.00;;;5.78;;
54665;SDS011;40566;50.006;36.180;2024-01-15T00:49:12;14.50;;;5.05;;
54665;SDS011;40566;50.006;36.180;2024-01-15T00:54:31;21.42;;;6.40;;
54665;SDS011;40566;50.006;36.180;2024-01-15T00:59:50;19.83;;;5.78;;
54665;SDS011;40566;50.006;36.180;2024-01-15T01:04:51;17.48;;;5.90;;
54665;SDS011;40566;50.006;36.180;2024-01-15T01:09:51;14.48;;;5.78;;
54665;SDS011;40566;50.006;36.180;2024-01-15T01:15:10;12.57;;;5.40;;
54665;SDS011;40566;50.006;36.180;2024-01-15T01:20:11;13.52;;;5.03;;
54665;SDS011;40566;50.006;36.180;2024-01-15T01:25:11;20.33;;;7.18;;
54665;SDS011;40566;50.006;36.180;2024-01-15T01:30:30;15.50;;;6.05;;
54665;SDS011;40566;50.006;36.180;2024-01-15T01:35:49;15.45;;;5.72;;
54665;SDS011;40566;50.006;36.180;2024-01-15T01:40:50;7.85;;;3.42;;
54665;SDS011;40566;50.006;36.180;2024-01-15T01:45:50;12.98;;;5.72;;
54665;SDS011;40566;50.006;36.180;2024-01-15T01:51:09;17.27;;;6.03;;
54665;SDS011;40566;50.006;36.180;2024-01-15T01:56:28;14.50;;;5.70;;
54665;SDS011;40566;50.006;36.180;2024-01-15T02:01:48;14.68;;;5.28;;
54665;SDS011;40566;50.006;36.180;2024-01-15T02:07:08;12.27;;;5.22;;
54665;SDS011;40566;50.006;36.180;2024-01-15T02:12:10;15.00;;;6.38;;
54665;SDS011;40566;50.006;36.180;2024-01-15T02:17:29;13.35;;;5.35;;
54665;SDS011;40566;50.006;36.180;2024-01-15T02:22:48;15.02;;;5.05;;
54665;SDS011;40566;50.006;36.180;2024-01-15T02:28:11;14.68;;;5.13;;
54665;SDS011;40566;50.006;36.180;2024-01-15T02:33:31;8.80;;;4.15;;
54665;SDS011;40566;50.006;36.180;2024-01-15T02:38:50;12.75;;;5.22;;
54665;SDS011;40566;50.006;36.180;2024-01-15T02:44:09;16.92;;;4.93;;
54665;SDS011;40566;50.006;36.180;2024-01-15T02:49:09;17.52;;;5.35;;
54665;SDS011;40566;50.006;36.180;2024-01-15T02:54:29;12.15;;;5.07;;
54665;SDS011;40566;50.006;36.180;2024-01-15T02:59:48;14.52;;;6.20;;
54665;SDS011;40566;50.006;36.180;2024-01-15T03:05:07;18.50;;;5.80;;
54665;SDS011;40566;50.006;36.180;2024-01-15T03:10:26;11.48;;;4.72;;
54665;SDS011;40566;50.006;36.180;2024-01-15T03:15:45;10.98;;;4.97;;
54665;SDS011;40566;50.006;36.180;2024-01-15T03:21:04;19.33;;;7.28;;
54665;SDS011;40566;50.006;36.180;2024-01-15T03:26:24;18.52;;;5.70;;
54665;SDS011;40566;50.006;36.180;2024-01-15T03:31:43;16.90;;;5.63;;
54665;SDS011;40566;50.006;36.180;2024-01-15T03:37:02;12.10;;;5.93;;
54665;SDS011;40566;50.006;36.180;2024-01-15T03:42:22;18.20;;;6.15;;
54665;SDS011;40566;50.006;36.180;2024-01-15T03:47:22;18.77;;;6.30;;
54665;SDS011;40566;50.006;36.180;2024-01-15T03:52:41;15.38;;;6.55;;
54665;SDS011;40566;50.006;36.180;2024-01-15T03:58:00;15.45;;;6.32;;
54665;SDS011;40566;50.006;36.180;2024-01-15T04:08:38;10.45;;;4.18;;
54665;SDS011;40566;50.006;36.180;2024-01-15T04:13:39;15.23;;;5.47;;
54665;SDS011;40566;50.006;36.180;2024-01-15T04:18:57;12.15;;;6.18;;
54665;SDS011;40566;50.006;36.180;2024-01-15T04:23:58;15.90;;;5.57;;
54665;SDS011;40566;50.006;36.180;2024-01-15T04:29:17;21.52;;;8.40;;
54665;SDS011;40566;50.006;36.180;2024-01-15T04:34:36;22.00;;;7.75;;
54665;SDS011;40566;50.006;36.180;2024-01-15T04:39:55;17.02;;;6.80;;
54665;SDS011;40566;50.006;36.180;2024-01-15T04:45:16;17.77;;;8.05;;
54665;SDS011;40566;50.006;36.180;2024-01-15T04:50:37;17.92;;;7.75;;
54665;SDS011;40566;50.006;36.180;2024-01-15T04:55:56;18.25;;;5.90;;
54665;SDS011;40566;50.006;36.180;2024-01-15T05:01:15;18.25;;;6.78;;
54665;SDS011;40566;50.006;36.180;2024-01-15T05:06:35;21.00;;;8.10;;
54665;SDS011;40566;50.006;36.180;2024-01-15T05:11:54;19.48;;;7.32;;
54665;SDS011;40566;50.006;36.180;2024-01-15T05:17:13;13.13;;;5.45;;
54665;SDS011;40566;50.006;36.180;2024-01-15T05:22:32;9.98;;;4.88;;
54665;SDS011;40566;50.006;36.180;2024-01-15T05:27:51;15.63;;;5.38;;
54665;SDS011;40566;50.006;36.180;2024-01-15T05:38:29;14.40;;;5.90;;
54665;SDS011;40566;50.006;36.180;2024-01-15T05:43:48;13.57;;;4.90;;
54665;SDS011;40566;50.006;36.180;2024-01-15T05:54:25;7.38;;;3.60;;
54665;SDS011;40566;50.006;36.180;2024-01-15T06:05:03;13.60;;;5.85;;
54665;SDS011;40566;50.006;36.180;2024-01-15T06:10:23;9.88;;;3.47;;
54665;SDS011;40566;50.006;36.180;2024-01-15T06:15:42;12.65;;;4.85;;
54665;SDS011;40566;50.006;36.180;2024-01-15T06:21:01;12.07;;;4.35;;
54665;SDS011;40566;50.006;36.180;2024-01-15T06:26:21;12.95;;;5.88;;
54665;SDS011;40566;50.006;36.180;2024-01-15T06:31:40;14.10;;;5.32;;
54665;SDS011;40566;50.006;36.180;2024-01-15T06:36:59;15.00;;;5.07;;
54665;SDS011;40566;50.006;36.180;2024-01-15T06:42:18;10.50;;;4.55;;
54665;SDS011;40566;50.006;36.180;2024-01-15T06:47:37;13.85;;;4.95;;
54665;SDS011;40566;50.006;36.180;2024-01-15T06:52:57;17.08;;;5.93;;
54665;SDS011;40566;50.006;36.180;2024-01-15T06:58:15;25.80;;;7.13;;
54665;SDS011;40566;50.006;36.180;2024-01-15T07:03:35;21.55;;;6.70;;
54665;SDS011;40566;50.006;36.180;2024-01-15T07:08:54;22.75;;;8.18;;
54665;SDS011;40566;50.006;36.180;2024-01-15T07:14:13;11.07;;;5.07;;
54665;SDS011;40566;50.006;36.180;2024-01-15T07:19:32;15.43;;;6.30;;
54665;SDS011;40566;50.006;36.180;2024-01-15T07:30:13;21.25;;;7.72;;
54665;SDS011;40566;50.006;36.180;2024-01-15T07:35:14;14.18;;;6.57;;
54665;SDS011;40566;50.006;36.180;2024-01-15T07:40:33;18.35;;;6.30;;
54665;SDS011;40566;50.006;36.180;2024-01-15T07:45:52;20.35;;;7.72;;
54665;SDS011;40566;50.006;36.180;2024-01-15T07:56:30;12.68;;;4.85;;
54665;SDS011;40566;50.006;36.180;2024-01-15T08:01:49;11.48;;;5.20;;
54665;SDS011;40566;50.006;36.180;2024-01-15T08:07:09;23.60;;;8.80;;
54665;SDS011;40566;50.006;36.180;2024-01-15T08:12:10;25.02;;;9.65;;
54665;SDS011;40566;50.006;36.180;2024-01-15T08:17:30;18.45;;;7.70;;
54665;SDS011;40566;50.006;36.180;2024-01-15T08:22:51;19.60;;;7.90;;
54665;SDS011;40566;50.006;36.180;2024-01-15T08:28:10;20.95;;;8.25;;
54665;SDS011;40566;50.006;36.180;2024-01-15T08:33:29;27.75;;;9.13;;
54665;SDS011;40566;50.006;36.180;2024-01-15T08:38:48;25.60;;;8.55;;
54665;SDS011;40566;50.006;36.180;2024-01-15T08:44:07;18.98;;;7.63;;
54665;SDS011;40566;50.006;36.180;2024-01-15T08:49:26;26.13;;;10.27;;
54665;SDS011;40566;50.006;36.180;2024-01-15T08:54:45;25.50;;;9.23;;
54665;SDS011;40566;50.006;36.180;2024-01-15T09:00:04;20.05;;;7.57;;
54665;SDS011;40566;50.006;36.180;2024-01-15T09:05:27;23.80;;;9.32;;
54665;SDS011;40566;50.006;36.180;2024-01-15T09:10:45;24.33;;;9.48;;
54665;SDS011;40566;50.006;36.180;2024-01-15T09:15:46;24.70;;;8.65;;
54665;SDS011;40566;50.006;36.180;2024-01-15T09:20:47;24.65;;;9.82;;
54665;SDS011;40566;50.006;36.180;2024-01-15T09:26:07;17.25;;;8.45;;
54665;SDS011;40566;50.006;36.180;2024-01-15T09:31:08;22.00;;;8.20;;
54665;SDS011;40566;50.006;36.180;2024-01-15T09:36:27;20.02;;;8.52;;
54665;SDS011;40566;50.006;36.180;2024-01-15T09:41:46;18.25;;;8.00;;
54665;SDS011;40566;50.006;36.180;2024-01-15T09:47:06;19.42;;;6.82;;
54665;SDS011;40566;50.006;36.180;2024-01-15T09:52:26;23.95;;;8.55;;
54665;SDS011;40566;50.006;36.180;2024-01-15T09:57:45;17.45;;;6.40;;
54665;SDS011;40566;50.006;36.180;2024-01-15T10:03:04;20.08;;;8.15;;
54665;SDS011;40566;50.006;36.180;2024-01-15T10:08:06;23.10;;;8.80;;
54665;SDS011;40566;50.006;36.180;2024-01-15T10:18:44;15.87;;;7.57;;
54665;SDS011;40566;50.006;36.180;2024-01-15T10:24:03;16.63;;;6.93;;
54665;SDS011;40566;50.006;36.180;2024-01-15T10:29:24;28.38;;;8.52;;
54665;SDS011;40566;50.006;36.180;2024-01-15T10:34:43;23.88;;;8.30;;
54665;SDS011;40566;50.006;36.180;2024-01-15T10:40:02;16.90;;;6.07;;
54665;SDS011;40566;50.006;36.180;2024-01-15T10:45:25;24.25;;;8.35;;
54665;SDS011;40566;50.006;36.180;2024-01-15T10:50:44;16.42;;;6.65;;
54665;SDS011;40566;50.006;36.180;2024-01-15T10:56:04;21.35;;;8.02;;
54665;SDS011;40566;50.006;36.180;2024-01-15T11:01:05;22.45;;;6.75;;
54665;SDS011;40566;50.006;36.180;2024-01-15T11:06:25;15.18;;;5.05;;
54665;SDS011;40566;50.006;36.180;2024-01-15T11:11:47;23.20;;;9.20;;
54665;SDS011;40566;50.006;36.180;2024-01-15T11:17:11;29.60;;;10.23;;
54665;SDS011;40566;50.006;36.180;2024-01-15T11:27:53;25.55;;;8.80;;
54665;SDS011;40566;50.006;36.180;2024-01-15T11:33:32;21.55;;;8.73;;
54665;SDS011;40566;50.006;36.180;2024-01-15T11:38:51;24.48;;;9.90;;
54665;SDS011;40566;50.006;36.180;2024-01-15T11:44:10;32.28;;;10.32;;
54665;SDS011;40566;50.006;36.180;2024-01-15T11:49:12;28.70;;;11.45;;
54665;SDS011;40566;50.006;36.180;2024-01-15T11:55:01;26.95;;;9.25;;
54665;SDS011;40566;50.006;36.180;2024-01-15T12:00:43;28.08;;;9.32;;
54665;SDS011;40566;50.006;36.180;2024-01-15T12:06:07;26.90;;;9.68;;
54665;SDS011;40566;50.006;36.180;2024-01-15T12:11:27;27.88;;;10.25;;
54665;SDS011;40566;50.006;36.180;2024-01-15T12:16:48;24.92;;;10.32;;
54665;SDS011;40566;50.006;36.180;2024-01-15T12:22:08;28.17;;;8.55;;
54665;SDS011;40566;50.006;36.180;2024-01-15T12:27:09;17.88;;;7.93;;
54665;SDS011;40566;50.006;36.180;2024-01-15T12:32:28;25.17;;;8.65;;
54665;SDS011;40566;50.006;36.180;2024-01-15T12:37:47;21.65;;;8.68;;
54665;SDS011;40566;50.006;36.180;2024-01-15T12:43:06;28.33;;;10.48;;
54665;SDS011;40566;50.006;36.180;2024-01-15T12:48:26;24.08;;;10.20;;
54665;SDS011;40566;50.006;36.180;2024-01-15T12:53:45;24.45;;;8.27;;
54665;SDS011;40566;50.006;36.180;2024-01-15T12:59:04;19.42;;;8.32;;
54665;SDS011;40566;50.006;36.180;2024-01-15T13:04:23;22.88;;;8.18;;
54665;SDS011;40566;50.006;36.180;2024-01-15T13:09:43;20.63;;;7.43;;
54665;SDS011;40566;50.006;36.180;2024-01-15T13:15:02;21.73;;;8.07;;
54665;SDS011;40566;50.006;36.180;2024-01-15T13:20:22;22.35;;;8.15;;
54665;SDS011;40566;50.006;36.180;2024-01-15T13:25:41;17.45;;;7.57;;
54665;SDS011;40566;50.006;36.180;2024-01-15T13:31:02;14.88;;;4.78;;
54665;SDS011;40566;50.006;36.180;2024-01-15T13:36:21;21.15;;;7.70;;
54665;SDS011;40566;50.006;36.180;2024-01-15T13:41:41;13.30;;;5.80;;
54665;SDS011;40566;50.006;36.180;2024-01-15T13:46:44;23.13;;;8.77;;
54665;SDS011;40566;50.006;36.180;2024-01-15T13:52:03;11.73;;;4.85;;
54665;SDS011;40566;50.006;36.180;2024-01-15T13:57:23;15.77;;;5.88;;
54665;SDS011;40566;50.006;36.180;2024-01-15T14:02:42;22.83;;;9.35;;
54665;SDS011;40566;50.006;36.180;2024-01-15T14:08:01;21.30;;;6.60;;
54665;SDS011;40566;50.006;36.180;2024-01-15T14:13:20;15.13;;;6.78;;
54665;SDS011;40566;50.006;36.180;2024-01-15T14:23:58;13.35;;;6.38;;
54665;SDS011;40566;50.006;36.180;2024-01-15T14:29:17;14.48;;;5.95;;
54665;SDS011;40566;50.006;36.180;2024-01-15T14:34:39;20.52;;;7.60;;
54665;SDS011;40566;50.006;36.180;2024-01-15T14:39:57;26.95;;;6.82;;
54665;SDS011;40566;50.006;36.180;2024-01-15T14:44:58;17.70;;;6.32;;
54665;SDS011;40566;50.006;36.180;2024-01-15T14:50:17;27.35;;;8.23;;
54665;SDS011;40566;50.006;36.180;2024-01-15T14:55:19;23.55;;;8.10;;
54665;SDS011;40566;50.006;36.180;2024-01-15T15:00:38;12.43;;;5.18;;
54665;SDS011;40566;50.006;36.180;2024-01-15T15:05:57;15.98;;;6.38;;
54665;SDS011;40566;50.006;36.180;2024-01-15T15:11:17;21.60;;;7.47;;
54665;SDS011;40566;50.006;36.180;2024-01-15T15:16:36;20.33;;;5.43;;
54665;SDS011;40566;50.006;36.180;2024-01-15T15:21:55;16.88;;;6.63;;
54665;SDS011;40566;50.006;36.180;2024-01-15T15:27:16;23.17;;;6.72;;
54665;SDS011;40566;50.006;36.180;2024-01-15T15:32:35;22.65;;;7.55;;
54665;SDS011;40566;50.006;36.180;2024-01-15T15:37:54;17.65;;;6.45;;
54665;SDS011;40566;50.006;36.180;2024-01-15T15:42:54;20.73;;;6.88;;
54665;SDS011;40566;50.006;36.180;2024-01-15T15:48:13;17.50;;;6.43;;
54665;SDS011;40566;50.006;36.180;2024-01-15T15:53:32;19.27;;;7.80;;
54665;SDS011;40566;50.006;36.180;2024-01-15T15:58:51;16.67;;;6.22;;
54665;SDS011;40566;50.006;36.180;2024-01-15T16:04:10;17.08;;;6.53;;
54665;SDS011;40566;50.006;36.180;2024-01-15T16:09:30;17.35;;;6.20;;
54665;SDS011;40566;50.006;36.180;2024-01-15T16:14:50;17.88;;;6.00;;
54665;SDS011;40566;50.006;36.180;2024-01-15T16:20:09;13.48;;;6.15;;
54665;SDS011;40566;50.006;36.180;2024-01-15T16:25:28;11.18;;;4.55;;
54665;SDS011;40566;50.006;36.180;2024-01-15T16:30:49;18.55;;;7.18;;
54665;SDS011;40566;50.006;36.180;2024-01-15T16:36:07;15.80;;;6.28;;
54665;SDS011;40566;50.006;36.180;2024-01-15T16:41:26;12.80;;;5.78;;
54665;SDS011;40566;50.006;36.180;2024-01-15T16:46:45;16.48;;;5.97;;
54665;SDS011;40566;50.006;36.180;2024-01-15T16:52:04;18.13;;;4.72;;
54665;SDS011;40566;50.006;36.180;2024-01-15T16:57:24;28.52;;;8.43;;
54665;SDS011;40566;50.006;36.180;2024-01-15T17:02:44;14.52;;;5.82;;
54665;SDS011;40566;50.006;36.180;2024-01-15T17:08:03;17.75;;;6.57;;
54665;SDS011;40566;50.006;36.180;2024-01-15T17:13:22;16.98;;;6.53;;
54665;SDS011;40566;50.006;36.180;2024-01-15T17:18:42;26.48;;;7.85;;
54665;SDS011;40566;50.006;36.180;2024-01-15T17:24:04;13.55;;;4.70;;
54665;SDS011;40566;50.006;36.180;2024-01-15T17:29:23;15.85;;;4.95;;
54665;SDS011;40566;50.006;36.180;2024-01-15T17:34:42;19.60;;;5.55;;
54665;SDS011;40566;50.006;36.180;2024-01-15T17:40:01;9.57;;;4.00;;
54665;SDS011;40566;50.006;36.180;2024-01-15T17:45:22;12.43;;;4.10;;
54665;SDS011;40566;50.006;36.180;2024-01-15T17:50:41;14.48;;;5.50;;
54665;SDS011;40566;50.006;36.180;2024-01-15T17:56:00;10.68;;;3.80;;
54665;SDS011;40566;50.006;36.180;2024-01-15T18:01:24;13.27;;;5.43;;
54665;SDS011;40566;50.006;36.180;2024-01-15T18:06:42;13.07;;;5.57;;
54665;SDS011;40566;50.006;36.180;2024-01-15T18:12:01;10.63;;;4.00;;
54665;SDS011;40566;50.006;36.180;2024-01-15T18:17:21;18.40;;;5.80;;
54665;SDS011;40566;50.006;36.180;2024-01-15T18:22:41;23.35;;;5.63;;
54665;SDS011;40566;50.006;36.180;2024-01-15T18:28:00;17.58;;;7.72;;
54665;SDS011;40566;50.006;36.180;2024-01-15T18:33:19;15.85;;;6.43;;
54665;SDS011;40566;50.006;36.180;2024-01-15T18:38:41;12.18;;;4.90;;
54665;SDS011;40566;50.006;36.180;2024-01-15T18:44:01;17.42;;;6.55;;
54665;SDS011;40566;50.006;36.180;2024-01-15T18:49:20;11.00;;;5.07;;
54665;SDS011;40566;50.006;36.180;2024-01-15T18:54:40;10.27;;;4.85;;
54665;SDS011;40566;50.006;36.180;2024-01-15T19:00:01;21.10;;;8.15;;
54665;SDS011;40566;50.006;36.180;2024-01-15T19:05:02;15.60;;;7.20;;
54665;SDS011;40566;50.006;36.180;2024-01-15T19:10:21;17.90;;;5.15;;
54665;SDS011;40566;50.006;36.180;2024-01-15T19:15:40;11.57;;;4.40;;
54665;SDS011;40566;50.006;36.180;2024-01-15T19:20:59;14.77;;;5.68;;
54665;SDS011;40566;50.006;36.180;2024-01-15T19:26:19;15.82;;;5.88;;
54665;SDS011;40566;50.006;36.180;2024-01-15T19:31:39;13.23;;;4.15;;
54665;SDS011;40566;50.006;36.180;2024-01-15T19:36:58;16.88;;;6.07;;
54665;SDS011;40566;50.006;36.180;2024-01-15T19:42:17;19.73;;;6.80;;
54665;SDS011;40566;50.006;36.180;2024-01-15T19:47:36;17.05;;;6.00;;
54665;SDS011;40566;50.006;36.180;2024-01-15T19:52:55;14.23;;;5.32;;
54665;SDS011;40566;50.006;36.180;2024-01-15T19:58:14;11.65;;;5.45;;
54665;SDS011;40566;50.006;36.180;2024-01-15T20:03:33;12.10;;;4.15;;
54665;SDS011;40566;50.006;36.180;2024-01-15T20:08:52;11.25;;;4.40;;
54665;SDS011;40566;50.006;36.180;2024-01-15T20:14:13;10.90;;;3.03;;
54665;SDS011;40566;50.006;36.180;2024-01-15T20:19:32;14.45;;;4.53;;
54665;SDS011;40566;50.006;36.180;2024-01-15T20:24:51;15.40;;;4.80;;
54665;SDS011;40566;50.006;36.180;2024-01-15T20:29:52;11.35;;;4.28;;
54665;SDS011;40566;50.006;36.180;2024-01-15T20:35:11;16.10;;;5.03;;
54665;SDS011;40566;50.006;36.180;2024-01-15T20:40:30;19.13;;;6.95;;
54665;SDS011;40566;50.006;36.180;2024-01-15T20:45:49;15.05;;;6.07;;
54665;SDS011;40566;50.006;36.180;2024-01-15T20:51:11;15.98;;;5.43;;
54665;SDS011;40566;50.006;36.180;2024-01-15T20:56:12;15.65;;;5.35;;
54665;SDS011;40566;50.006;36.180;2024-01-15T21:01:31;12.63;;;5.40;;
54665;SDS011;40566;50.006;36.180;2024-01-15T21:06:50;17.83;;;5.68;;
54665;SDS011;40566;50.006;36.180;2024-01-15T21:12:10;16.65;;;6.03;;
54665;SDS011;40566;50.006;36.180;2024-01-15T21:17:29;15.45;;;5.15;;
54665;SDS011;40566;50.006;36.180;2024-01-15T21:22:48;13.43;;;6.05;;
54665;SDS011;40566;50.006;36.180;2024-01-15T21:28:09;21.15;;;7.30;;
54665;SDS011;40566;50.006;36.180;2024-01-15T21:33:28;14.05;;;5.93;;
54665;SDS011;40566;50.006;36.180;2024-01-15T21:38:55;16.95;;;5.43;;
54665;SDS011;40566;50.006;36.180;2024-01-15T21:44:14;16.40;;;4.38;;
54665;SDS011;40566;50.006;36.180;2024-01-15T21:49:35;11.23;;;4.25;;
54665;SDS011;40566;50.006;36.180;2024-01-15T21:54:54;15.32;;;4.78;;
54665;SDS011;40566;50.006;36.180;2024-01-15T22:00:13;30.30;;;9.68;;
54665;SDS011;40566;50.006;36.180;2024-01-15T22:05:15;23.15;;;8.18;;
54665;SDS011;40566;50.006;36.180;2024-01-15T22:10:35;21.40;;;8.43;;
54665;SDS011;40566;50.006;36.180;2024-01-15T22:15:54;22.50;;;7.90;;
54665;SDS011;40566;50.006;36.180;2024-01-15T22:21:14;25.02;;;6.80;;
54665;SDS011;40566;50.006;36.180;2024-01-15T22:26:33;20.50;;;6.00;;
54665;SDS011;40566;50.006;36.180;2024-01-15T22:31:52;17.80;;;6.03;;
54665;SDS011;40566;50.006;36.180;2024-01-15T22:37:11;17.75;;;5.65;;
54665;SDS011;40566;50.006;36.180;2024-01-15T22:47:49;21.48;;;5.75;;
54665;SDS011;40566;50.006;36.180;2024-01-15T22:53:08;17.40;;;6.10;;
54665;SDS011;40566;50.006;36.180;2024-01-15T22:58:28;21.83;;;6.15;;
54665;SDS011;40566;50.006;36.180;2024-01-15T23:03:47;16.98;;;5.68;;
54665;SDS011;40566;50.006;36.180;2024-01-15T23:09:06;18.45;;;6.53;;
54665;SDS011;40566;50.006;36.180;2024-01-15T23:14:07;15.13;;;6.30;;
54665;SDS011;40566;50.006;36.180;2024-01-15T23:19:26;20.25;;;6.25;;
54665;SDS011;40566;50.006;36.180;2024-01-15T23:24:45;23.35;;;6.60;;
54665;SDS011;40566;50.006;36.180;2024-01-15T23:30:04;17.08;;;7.45;;
54665;SDS011;40566;50.006;36.180;2024-01-15T23:35:24;22.90;;;6.60;;
54665;SDS011;40566;50.006;36.180;2024-01-15T23:40:43;23.73;;;7.32;;
54665;SDS011;40566;50.006;36.180;2024-01-15T23:46:02;16.15;;;5.53;;
54665;SDS011;40566;50.006;36.180;2024-01-15T23:51:21;15.05;;;4.93;;
54665;SDS011;40566;50.006;36.180;2024-01-15T23:56:40;14.20;;;5.82;;
